Time;durP1;ratioP1;P1;durP2;ratioP2;P2;SDS_P1;SDS_P2;PMS_P1;PMS_P2;Temp;Humidity;BMP_temperature;BMP_pressure;BME280_temperature;BME280_humidity;BME280_pressure;Samples;Min_cycle;Max_cycle;Signal;HPM_P1;HPM_P2
2022/02/11 00:08:45;;;;;;;3.65;1.20;;;;;;;;;;5105138;28;20028;-75
2022/02/11 00:11:14;;;;;;;4.25;1.25;;;;;;;;;;5105407;28;20770;-73
2022/02/11 00:13:40;;;;;;;4.40;1.65;;;;;;;;;;5105586;28;20062;-75
2022/02/11 00:16:06;;;;;;;4.78;1.60;;;;;;;;;;5087001;28;20055;-73
2022/02/11 00:18:32;;;;;;;2.50;1.10;;;;;;;;;;5104786;28;20126;-79
2022/02/11 00:20:58;;;;;;;3.22;1.35;;;;;;;;;;5107041;28;20024;-78
2022/02/11 00:23:24;;;;;;;2.55;1.30;;;;;;;;;;5105971;28;20024;-77
2022/02/11 00:26:01;;;;;;;5.28;1.73;;;;;;;;;;5105929;28;20047;-76
2022/02/11 00:33:39;;;;;;;3.13;1.52;;;;;;;;;;5105283;28;20156;-75
2022/02/11 00:36:08;;;;;;;3.63;1.38;;;;;;;;;;5106049;28;20127;-76
2022/02/11 00:38:55;;;;;;;2.55;1.20;;;;;;;;;;5105560;28;20068;-75
2022/02/11 01:02:55;;;;;;;3.80;1.48;;;;;;;;;;5110916;28;20042;-72
2022/02/11 01:05:21;;;;;;;3.13;1.10;;;;;;;;;;5109073;28;20028;-74
2022/02/11 01:07:49;;;;;;;3.10;1.30;;;;;;;;;;5090187;28;20050;-73
2022/02/11 01:10:16;;;;;;;3.45;1.73;;;;;;;;;;5108639;28;20027;-72
2022/02/11 01:12:43;;;;;;;3.58;1.52;;;;;;;;;;5090129;28;20554;-73
2022/02/11 01:15:09;;;;;;;3.88;1.42;;;;;;;;;;5109021;28;21290;-72
2022/02/11 01:17:41;;;;;;;3.53;1.20;;;;;;;;;;5108387;28;20039;-75
2022/02/11 01:20:22;;;;;;;5.00;1.67;;;;;;;;;;5110795;28;20024;-77
2022/02/11 01:39:14;;;;;;;2.75;1.50;;;;;;;;;;5108689;28;20059;-75
2022/02/11 01:53:02;;;;;;;3.65;1.33;;;;;;;;;;5106364;28;20124;-80
2022/02/11 01:55:37;;;;;;;4.63;1.50;;;;;;;;;;5107110;28;20027;-75
2022/02/11 02:09:13;;;;;;;3.63;1.23;;;;;;;;;;5108421;28;20043;-73
2022/02/11 02:14:47;;;;;;;4.30;1.17;;;;;;;;;;5107972;28;20440;-74
2022/02/11 02:25:05;;;;;;;3.85;1.20;;;;;;;;;;5107043;28;20036;-73
2022/02/11 02:57:36;;;;;;;2.92;1.13;;;;;;;;;;5106715;28;20164;-75
2022/02/11 03:49:32;;;;;;;5.20;1.25;;;;;;;;;;5106884;28;20106;-78
2022/02/11 03:58:10;;;;;;;3.47;1.10;;;;;;;;;;5042724;28;20087;-77
2022/02/11 04:55:23;;;;;;;3.47;1.13;;;;;;;;;;5109284;28;20096;-73
2022/02/11 05:00:34;;;;;;;5.72;1.40;;;;;;;;;;5109317;28;20098;-73
2022/02/11 05:03:00;;;;;;;5.63;1.60;;;;;;;;;;5109625;28;20031;-73
2022/02/11 05:05:26;;;;;;;4.57;1.35;;;;;;;;;;5109214;28;20026;-74
2022/02/11 05:07:52;;;;;;;4.05;1.48;;;;;;;;;;5109167;28;20036;-73
2022/02/11 05:10:19;;;;;;;5.25;1.33;;;;;;;;;;5109328;28;20043;-76
2022/02/11 05:12:45;;;;;;;3.00;1.42;;;;;;;;;;5108489;28;20038;-77
2022/02/11 05:15:12;;;;;;;3.85;1.35;;;;;;;;;;5109839;28;20430;-74
2022/02/11 05:17:39;;;;;;;3.95;1.13;;;;;;;;;;5108844;28;20099;-75
2022/02/11 05:20:06;;;;;;;3.67;1.38;;;;;;;;;;5108492;28;20767;-78
2022/02/11 05:22:32;;;;;;;4.20;1.35;;;;;;;;;;5110515;28;20024;-75
2022/02/11 05:24:58;;;;;;;5.43;1.38;;;;;;;;;;5109126;28;20019;-77
2022/02/11 05:27:24;;;;;;;3.95;1.30;;;;;;;;;;5108747;28;20019;-75
2022/02/11 05:29:50;;;;;;;4.07;1.42;;;;;;;;;;5108464;28;20039;-75
2022/02/11 05:32:16;;;;;;;4.47;1.52;;;;;;;;;;5108737;28;20498;-75
2022/02/11 05:34:42;;;;;;;5.57;1.77;;;;;;;;;;5106953;28;20031;-74
2022/02/11 05:37:08;;;;;;;4.15;1.42;;;;;;;;;;5108757;28;20419;-77
2022/02/11 05:39:34;;;;;;;3.78;1.13;;;;;;;;;;5089885;28;20023;-75
2022/02/11 05:42:00;;;;;;;4.68;1.52;;;;;;;;;;5090819;28;20034;-75
2022/02/11 05:44:26;;;;;;;4.13;1.15;;;;;;;;;;5108038;28;20124;-75
2022/02/11 05:46:52;;;;;;;7.65;1.83;;;;;;;;;;5108222;28;20076;-74
2022/02/11 05:49:18;;;;;;;4.47;1.38;;;;;;;;;;5108077;28;20024;-74
2022/02/11 05:51:44;;;;;;;3.17;1.00;;;;;;;;;;5108791;28;20041;-76
2022/02/11 05:54:10;;;;;;;4.57;1.35;;;;;;;;;;5108017;28;20027;-75
2022/02/11 05:56:36;;;;;;;4.13;1.50;;;;;;;;;;5107072;28;20073;-80
2022/02/11 05:59:02;;;;;;;3.85;0.90;;;;;;;;;;5109014;28;20537;-78
2022/02/11 06:01:29;;;;;;;4.05;1.52;;;;;;;;;;5092710;28;20118;-77
2022/02/11 06:03:54;;;;;;;3.95;1.27;;;16.90;59.50;;;;;;5108168;28;20028;-80
2022/02/11 06:06:20;;;;;;;5.32;1.63;;;16.90;59.80;;;;;;5108267;28;20061;-77
2022/02/11 06:08:46;;;;;;;6.40;1.70;;;17.00;60.00;;;;;;5108230;28;20059;-76
2022/02/11 06:11:12;;;;;;;4.28;1.67;;;17.00;60.10;;;;;;5091777;28;20036;-77
2022/02/11 06:13:37;;;;;;;5.85;1.40;;;17.00;60.30;;;;;;5088367;28;20027;-75
2022/02/11 06:16:03;;;;;;;6.65;1.30;;;17.00;60.50;;;;;;5108199;28;20471;-77
2022/02/11 06:18:29;;;;;;;4.80;1.35;;;17.00;60.60;;;;;;5088355;28;20506;-79
2022/02/11 06:20:55;;;;;;;4.35;1.33;;;17.00;60.70;;;;;;5109101;28;20030;-77
2022/02/11 06:23:20;;;;;;;2.80;1.25;;;17.10;61.80;;;;;;5089381;28;20032;-81
2022/02/11 06:25:48;;;;;;;4.40;1.30;;;17.10;61.10;;;;;;5088201;28;20088;-79
2022/02/11 06:28:15;;;;;;;4.57;1.42;;;17.20;60.90;;;;;;5088749;28;20464;-77
2022/02/11 06:30:40;;;;;;;5.10;1.23;;;17.20;60.70;;;;;;5107107;28;20020;-76
2022/02/11 06:33:06;;;;;;;6.85;1.42;;;17.20;61.10;;;;;;5110357;28;20042;-74
2022/02/11 06:35:34;;;;;;;3.25;1.25;;;17.20;60.90;;;;;;5088793;28;20032;-73
2022/02/11 06:38:00;;;;;;;7.85;1.10;;;17.30;60.90;;;;;;5107191;28;20039;-74
2022/02/11 06:40:29;;;;;;;5.15;1.10;;;17.30;60.90;;;;;;5088583;28;20441;-74
2022/02/11 06:42:56;;;;;;;12.93;1.58;;;17.40;60.80;;;;;;5106900;28;20118;-73
2022/02/11 06:45:22;;;;;;;4.03;1.38;;;17.40;60.90;;;;;;5107549;28;20483;-76
2022/02/11 06:47:48;;;;;;;7.22;1.50;;;17.40;60.70;;;;;;5105903;28;20121;-76
2022/02/11 06:50:14;;;;;;;6.43;1.48;;;17.40;60.60;;;;;;5106650;28;20019;-76
2022/02/11 06:52:40;;;;;;;4.68;1.25;;;17.50;60.60;;;;;;5107740;28;20031;-75
2022/02/11 06:55:06;;;;;;;4.30;1.20;;;17.50;60.50;;;;;;5106770;28;20457;-75
2022/02/11 06:57:32;;;;;;;6.78;1.63;;;17.50;60.60;;;;;;5107470;28;20031;-76
2022/02/11 06:59:59;;;;;;;10.48;1.85;;;17.60;60.80;;;;;;5107236;28;20085;-76
2022/02/11 07:02:28;;;;;;;6.65;1.70;;;17.60;60.80;;;;;;5106306;28;20448;-75
2022/02/11 07:04:54;;;;;;;6.32;1.75;;;17.60;60.80;;;;;;5106735;28;20028;-75
2022/02/11 07:07:20;;;;;;;4.80;1.10;;;17.60;60.60;;;;;;5106536;28;20023;-77
2022/02/11 07:09:45;;;;;;;5.95;1.38;;;17.60;60.60;;;;;;5106136;28;20102;-75
2022/02/11 07:12:11;;;;;;;8.63;1.65;;;17.60;60.60;;;;;;5108074;28;20102;-74
2022/02/11 07:14:37;;;;;;;7.22;1.35;;;17.60;60.30;;;;;;5106289;28;20043;-76
2022/02/11 07:17:04;;;;;;;10.18;1.38;;;17.60;60.50;;;;;;5105915;28;20032;-75
2022/02/11 07:19:30;;;;;;;7.50;1.70;;;17.60;60.50;;;;;;5106072;28;20066;-74
2022/02/11 07:22:00;;;;;;;6.78;1.40;;;17.50;60.40;;;;;;5107097;28;20035;-76
2022/02/11 07:24:27;;;;;;;5.70;1.77;;;17.50;60.40;;;;;;5106795;28;20031;-77
2022/02/11 07:26:53;;;;;;;7.40;1.58;;;17.50;60.50;;;;;;5106539;28;20461;-77
2022/02/11 07:29:19;;;;;;;6.43;1.40;;;17.50;60.50;;;;;;5106485;28;20043;-76
2022/02/11 07:31:44;;;;;;;5.45;1.50;;;17.50;60.50;;;;;;5088364;28;20023;-76
2022/02/11 07:34:10;;;;;;;6.97;1.42;;;17.50;60.60;;;;;;5087117;28;20043;-74
2022/02/11 07:36:36;;;;;;;9.82;1.80;;;17.40;60.60;;;;;;5086965;28;20061;-74
2022/02/11 07:39:03;;;;;;;6.32;1.35;;;17.40;60.90;;;;;;5105847;28;20051;-75
2022/02/11 07:41:28;;;;;;;7.22;1.67;;;17.40;61.00;;;;;;5088314;28;20023;-75
2022/02/11 07:43:54;;;;;;;9.48;1.67;;;17.40;61.00;;;;;;5087956;28;20081;-74
2022/02/11 07:46:20;;;;;;;6.35;1.80;;;17.30;61.10;;;;;;5106175;28;20491;-75
2022/02/11 07:48:45;;;;;;;11.23;3.15;;;17.30;61.20;;;;;;5105393;28;20023;-76
2022/02/11 07:51:11;;;;;;;5.95;2.40;;;17.30;61.70;;;;;;5107241;28;20621;-77
2022/02/11 07:53:38;;;;;;;7.60;2.00;;;17.30;61.80;;;;;;5105204;28;20035;-78
2022/02/11 07:56:03;;;;;;;6.10;1.52;;;17.30;61.50;;;;;;5086960;28;21555;-75
2022/02/11 07:58:30;;;;;;;7.88;2.28;;;17.40;61.30;;;;;;5104588;28;20037;-75
2022/02/11 08:00:57;;;;;;;5.97;1.50;;;17.40;61.20;;;;;;5105770;28;20024;-79
2022/02/11 08:03:25;;;;;;;9.65;2.22;;;17.40;60.90;;;;;;5105938;28;20023;-76
2022/02/11 08:05:51;;;;;;;6.70;2.03;;;17.50;60.70;;;;;;5086812;28;20016;-78
2022/02/11 08:08:20;;;;;;;4.90;1.52;;;17.50;60.80;;;;;;5087137;28;20468;-79
2022/02/11 08:10:46;;;;;;;6.05;1.70;;;17.50;60.50;;;;;;5106268;28;20019;-76
2022/02/11 08:13:12;;;;;;;7.25;1.75;;;17.50;60.60;;;;;;5106148;28;20097;-72
2022/02/11 08:15:38;;;;;;;6.53;2.17;;;17.40;61.00;;;;;;5106810;28;20019;-78
2022/02/11 08:18:03;;;;;;;5.30;1.67;;;17.40;61.10;;;;;;5088057;28;20089;-79
2022/02/11 08:20:29;;;;;;;6.97;2.10;;;17.40;61.20;;;;;;5106044;28;20146;-78
2022/02/11 08:22:54;;;;;;;15.15;2.22;;;17.40;61.10;;;;;;5107137;28;20086;-75
2022/02/11 08:25:20;;;;;;;7.80;2.03;;;17.40;61.20;;;;;;5105801;28;20032;-76
2022/02/11 08:27:47;;;;;;;4.47;1.65;;;17.50;61.30;;;;;;5105240;28;20020;-78
2022/02/11 08:30:14;;;;;;;6.93;2.42;;;17.50;62.10;;;;;;5105904;28;20034;-77
2022/02/11 08:32:41;;;;;;;6.43;2.33;;;17.50;61.30;;;;;;5105904;28;20066;-73
2022/02/11 08:35:07;;;;;;;5.70;1.90;;;17.60;61.20;;;;;;5085802;28;20448;-74
2022/02/11 08:37:33;;;;;;;5.63;2.20;;;17.60;61.10;;;;;;5105865;28;20024;-77
2022/02/11 08:39:58;;;;;;;4.50;1.58;;;17.70;61.00;;;;;;5105058;28;20036;-77
2022/02/11 08:42:24;;;;;;;5.82;1.73;;;17.70;60.90;;;;;;5090956;28;20016;-80
2022/02/11 08:44:50;;;;;;;8.70;2.03;;;17.80;60.60;;;;;;5105884;28;20117;-83
2022/02/11 08:47:16;;;;;;;5.78;1.60;;;17.70;60.80;;;;;;5104963;28;20384;-79
2022/02/11 08:49:41;;;;;;;6.13;1.52;;;17.80;60.60;;;;;;5105571;28;20027;-77
2022/02/11 08:52:08;;;;;;;6.13;1.67;;;17.70;60.70;;;;;;5106571;28;20085;-78
2022/02/11 08:54:34;;;;;;;8.38;2.35;;;17.80;61.00;;;;;;5105375;28;20024;-74
2022/02/11 08:57:01;;;;;;;7.40;1.95;;;17.80;60.90;;;;;;5106107;28;20452;-77
2022/02/11 08:59:26;;;;;;;10.10;2.50;;;17.80;60.50;;;;;;5105588;28;20055;-82
2022/02/11 09:01:52;;;;;;;4.95;1.90;;;17.90;60.50;;;;;;5106113;28;20126;-81
2022/02/11 09:04:18;;;;;;;8.35;2.33;;;17.90;60.70;;;;;;5087995;28;20045;-75
2022/02/11 09:06:44;;;;;;;8.90;2.17;;;17.90;60.50;;;;;;5105753;28;20036;-80
2022/02/11 09:09:10;;;;;;;5.18;2.08;;;18.00;60.50;;;;;;5106286;28;20055;-81
2022/02/11 09:11:36;;;;;;;6.47;1.60;;;18.00;60.30;;;;;;5110744;28;20055;-73
2022/02/11 09:14:02;;;;;;;4.28;1.77;;;18.00;60.70;;;;;;5109218;28;20107;-73
2022/02/11 09:16:28;;;;;;;5.78;1.88;;;18.10;60.10;;;;;;5108367;28;20023;-74
2022/02/11 09:18:53;;;;;;;11.43;2.75;;;18.10;60.00;;;;;;5108783;28;20457;-74
2022/02/11 09:21:19;;;;;;;4.75;1.63;;;18.10;59.80;;;;;;5111434;28;20020;-79
2022/02/11 09:23:45;;;;;;;5.78;1.83;;;18.10;59.60;;;;;;5108065;28;20031;-74
2022/02/11 09:26:11;;;;;;;5.50;2.00;;;18.20;59.60;;;;;;5090275;28;20116;-73
2022/02/11 09:28:37;;;;;;;5.05;1.65;;;18.20;59.60;;;;;;5108433;28;20032;-73
2022/02/11 09:31:03;;;;;;;5.35;1.80;;;18.20;59.50;;;;;;5090662;28;20022;-73
2022/02/11 09:33:29;;;;;;;6.10;2.17;;;18.20;59.30;;;;;;5090573;28;20107;-75
2022/02/11 09:35:55;;;;;;;5.40;2.00;;;18.30;59.20;;;;;;5090123;28;20029;-74
2022/02/11 09:38:24;;;;;;;5.43;2.08;;;18.30;59.00;;;;;;5109550;28;20414;-76
2022/02/11 09:40:51;;;;;;;7.30;1.55;;;18.30;59.10;;;;;;5109111;28;20016;-75
2022/02/11 09:43:18;;;;;;;5.10;2.15;;;18.40;59.10;;;;;;5108532;28;20518;-74
2022/02/11 09:45:44;;;;;;;6.63;2.33;;;18.40;59.00;;;;;;5108529;28;20383;-77
2022/02/11 11:05:06;;;;;;;4.90;1.77;;;19.50;57.80;;;;;;5129278;27;20111;-73
2022/02/11 11:07:33;;;;;;;9.38;1.63;;;19.30;57.60;;;;;;5128678;28;20051;-76
2022/02/11 11:10:01;;;;;;;5.20;1.42;;;19.20;57.50;;;;;;5129184;28;20016;-71
2022/02/11 11:12:28;;;;;;;7.25;1.52;;;19.20;57.70;;;;;;5129086;28;20028;-74
2022/02/11 11:14:57;;;;;;;8.23;1.67;;;19.20;57.80;;;;;;5110967;28;20020;-72
2022/02/11 11:17:24;;;;;;;28.67;1.85;;;;;;;;;;5110544;28;20066;-75
2022/02/11 11:19:50;;;;;;;12.45;2.25;;;;;;;;;;5129488;27;20058;-74
2022/02/11 11:22:19;;;;;;;6.93;1.67;;;;;;;;;;5111093;28;20028;-72
2022/02/11 11:24:45;;;;;;;4.47;1.70;;;;;;;;;;5128097;28;20028;-73
2022/02/11 11:27:11;;;;;;;8.00;1.60;;;;;;;;;;5129162;28;20372;-74
2022/02/11 11:29:37;;;;;;;7.93;1.48;;;;;;;;;;5128915;28;20027;-75
2022/02/11 11:32:05;;;;;;;11.00;2.22;;;;;;;;;;5129108;28;20027;-73
2022/02/11 11:34:39;;;;;;;5.40;1.65;;;;;;;;;;5128339;28;20555;-75
2022/02/11 11:37:08;;;;;;;11.57;3.25;;;20.10;56.90;;;;;;5110424;28;20019;-74
2022/02/11 11:39:34;;;;;;;6.85;2.13;;;20.20;57.60;;;;;;5110319;28;20035;-74
2022/02/11 11:42:11;;;;;;;12.48;2.45;;;20.70;56.30;;;;;;5110394;28;20491;-75
2022/02/11 11:44:52;;;;;;;12.20;2.78;;;21.00;55.10;;;;;;5128402;28;20043;-76
2022/02/11 11:47:28;;;;;;;12.50;3.13;;;21.50;54.10;;;;;;5110623;28;20024;-75
2022/02/11 11:49:55;;;;;;;8.00;2.78;;;;;;;;;;5128314;28;20023;-74
2022/02/11 11:52:21;;;;;;;8.88;2.45;;;;;;;;;;5129076;28;20039;-73
2022/02/11 11:54:47;;;;;;;7.15;2.20;;;;;;;;;;5127907;28;20102;-74
2022/02/11 11:57:14;;;;;;;12.50;6.43;;;;;;;;;;5128079;28;20115;-73
2022/02/11 11:59:50;;;;;;;15.40;5.82;;;;;;;;;;5109719;28;20579;-76
2022/02/11 12:02:20;;;;;;;11.68;5.38;;;;;;;;;;5127976;28;20031;-76
2022/02/11 12:04:49;;;;;;;9.15;5.03;;;;;;;;;;5127687;28;20044;-75
2022/02/11 12:07:20;;;;;;;11.05;4.38;;;25.00;45.00;;;;;;5128367;28;20019;-75
2022/02/11 12:09:50;;;;;;;9.55;4.28;;;24.70;45.80;;;;;;5109224;28;20028;-74
2022/02/11 12:12:28;;;;;;;13.25;3.60;;;24.40;47.00;;;;;;5127687;28;20110;-74
2022/02/11 12:14:55;;;;;;;7.07;3.42;;;24.90;46.10;;;;;;5123105;28;20099;-75
2022/02/11 12:17:23;;;;;;;8.70;3.40;;;25.10;45.40;;;;;;5114429;28;20028;-81
2022/02/11 12:19:50;;;;;;;13.23;2.90;;;24.20;46.80;;;;;;5114598;28;20030;-76
2022/02/11 12:22:20;;;;;;;8.75;2.58;;;23.40;48.20;;;;;;5095542;28;20416;-80
2022/02/11 12:27:35;;;;;;;9.43;2.97;;;22.80;49.30;;;;;;5114224;28;20684;-79
2022/02/11 12:30:16;;;;;;;5.88;2.80;;;22.30;50.50;;;;;;5096025;28;20043;-79
2022/02/11 12:32:47;;;;;;;6.65;2.65;;;22.40;51.00;;;;;;5113662;28;20537;-78
2022/02/11 12:35:15;;;;;;;12.18;2.13;;;22.30;50.30;;;;;;5113937;28;20038;-75
2022/02/11 12:37:42;;;;;;;9.05;3.03;;;22.20;50.50;;;;;;5113782;28;20016;-81
2022/02/11 12:40:12;;;;;;;8.30;2.13;;;22.60;50.40;;;;;;5095816;28;20096;-77
2022/02/11 12:42:41;;;;;;;6.38;1.88;;;22.40;50.40;;;;;;5113885;28;20177;-77
2022/02/11 12:45:10;;;;;;;6.05;2.28;;;25.10;46.50;;;;;;5114025;28;20106;-77
2022/02/11 12:47:37;;;;;;;7.25;1.90;;;25.20;45.60;;;;;;5113057;28;20035;-74
2022/02/11 12:50:04;;;;;;;6.13;1.67;;;26.20;44.50;;;;;;5113896;28;20024;-75
2022/02/11 12:52:34;;;;;;;3.17;1.33;;;25.00;44.90;;;;;;5113516;28;20026;-75
2022/02/11 12:55:06;;;;;;;7.70;1.75;;;25.30;44.60;;;;;;5117050;28;20057;-76
2022/02/11 12:57:35;;;;;;;5.55;1.70;;;24.10;46.80;;;;;;5115808;28;20030;-75
2022/02/11 13:00:02;;;;;;;5.45;1.73;;;23.70;47.90;;;;;;5115794;28;20035;-74
2022/02/11 13:02:35;;;;;;;4.90;1.60;;;24.90;46.30;;;;;;5115204;28;20015;-74
2022/02/11 13:05:04;;;;;;;7.38;1.95;;;24.10;46.40;;;;;;5097683;28;20059;-75
2022/02/11 13:07:30;;;;;;;7.68;2.30;;;23.40;48.30;;;;;;5096856;28;20027;-74
2022/02/11 13:09:56;;;;;;;6.18;2.10;;;25.40;45.70;;;;;;5096978;28;20536;-75
2022/02/11 13:12:22;;;;;;;9.23;2.30;;;25.10;45.60;;;;;;5097143;28;20039;-75
2022/02/11 13:14:47;;;;;;;4.78;1.70;;;24.30;47.20;;;;;;5097746;28;20069;-76
2022/02/11 13:17:16;;;;;;;7.32;1.77;;;23.70;48.30;;;;;;5097650;28;20027;-76
2022/02/11 13:19:41;;;;;;;4.05;1.77;;;23.30;50.00;;;;;;5115191;28;20049;-76
2022/02/11 13:22:07;;;;;;;5.28;1.98;;;23.10;49.60;;;;;;5115462;28;20020;-76
2022/02/11 13:24:34;;;;;;;6.20;2.05;;;22.90;50.10;;;;;;5115418;28;20053;-75
2022/02/11 13:27:00;;;;;;;6.47;1.80;;;22.80;50.40;;;;;;5112848;28;20020;-75
2022/02/11 13:29:26;;;;;;;5.57;1.48;;;22.70;50.60;;;;;;5095639;28;20022;-75
2022/02/11 13:31:54;;;;;;;6.80;1.80;;;22.60;50.60;;;;;;5095845;28;20081;-75
2022/02/11 13:34:20;;;;;;;4.00;1.27;;;22.50;50.70;;;;;;5114296;28;20030;-75
2022/02/11 13:36:48;;;;;;;8.20;1.60;;;22.50;50.90;;;;;;5096267;28;20114;-75
2022/02/11 13:39:32;;;;;;;4.65;1.50;;;22.50;51.00;;;;;;5114993;28;20107;-75
2022/02/11 13:42:06;;;;;;;3.83;1.42;;;22.40;51.20;;;;;;5096130;28;20062;-75
2022/02/11 13:44:32;;;;;;;5.60;1.48;;;22.30;51.20;;;;;;5114259;28;20046;-76
2022/02/11 13:47:00;;;;;;;4.68;1.70;;;22.40;51.30;;;;;;5095377;28;20036;-76
2022/02/11 13:49:37;;;;;;;4.97;1.65;;;22.30;51.20;;;;;;5094017;28;20019;-74
2022/02/11 13:55:06;;;;;;;5.65;1.40;;;22.20;51.40;;;;;;5112805;28;20071;-74
2022/02/11 13:57:35;;;;;;;4.97;1.10;;;22.20;51.50;;;;;;5112298;28;20051;-74
2022/02/11 14:00:23;;;;;;;4.07;1.40;;;22.20;51.50;;;;;;5111801;28;20093;-74
2022/02/11 14:02:49;;;;;;;3.08;1.27;;;22.20;51.60;;;;;;5094784;28;20034;-75
2022/02/11 14:05:15;;;;;;;4.28;1.27;;;22.10;51.70;;;;;;5113725;28;20023;-75
2022/02/11 14:07:53;;;;;;;5.13;1.52;;;22.10;51.80;;;;;;5112178;28;20034;-75
2022/02/11 14:10:19;;;;;;;3.72;1.25;;;22.10;51.80;;;;;;5113572;28;20487;-75
2022/02/11 14:12:45;;;;;;;5.10;1.45;;;22.10;52.00;;;;;;5112512;28;20031;-75
2022/02/11 14:15:11;;;;;;;4.07;1.27;;;22.00;52.50;;;;;;5112710;28;20020;-74
2022/02/11 14:17:39;;;;;;;2.95;1.08;;;22.00;51.90;;;;;;5093717;28;20035;-76
2022/02/11 14:20:05;;;;;;;5.65;1.23;;;22.00;52.00;;;;;;5113352;28;20523;-75
2022/02/11 14:22:31;;;;;;;5.10;1.48;;;22.00;51.90;;;;;;5093607;28;20600;-76
2022/02/11 14:24:58;;;;;;;3.63;1.35;;;22.00;52.10;;;;;;5113745;28;20023;-76
2022/02/11 14:27:24;;;;;;;5.75;1.25;;;21.90;52.00;;;;;;5112822;28;20027;-76
2022/02/11 14:29:49;;;;;;;3.50;1.30;;;21.90;52.10;;;;;;5095610;28;20035;-76
2022/02/11 14:32:15;;;;;;;4.32;1.30;;;21.90;52.20;;;;;;5113403;28;20051;-77
2022/02/11 14:34:41;;;;;;;4.00;1.50;;;21.90;52.10;;;;;;5113494;28;20491;-77
2022/02/11 14:37:10;;;;;;;4.07;1.20;;;21.90;52.10;;;;;;5114401;28;20034;-76
2022/02/11 14:39:37;;;;;;;2.90;1.00;;;21.80;52.20;;;;;;5094711;28;20027;-76
2022/02/11 14:42:05;;;;;;;2.53;1.02;;;21.80;52.30;;;;;;5096228;28;20119;-75
2022/02/11 14:44:34;;;;;;;4.50;1.40;;;21.80;52.40;;;;;;5095723;28;20012;-76
2022/02/11 14:47:02;;;;;;;5.53;1.30;;;21.80;52.40;;;;;;5112926;28;20028;-75
2022/02/11 14:49:32;;;;;;;2.72;1.17;;;21.80;52.40;;;;;;5094444;28;20120;-76
2022/02/11 14:52:03;;;;;;;3.53;1.17;;;21.80;52.50;;;;;;5112904;28;20028;-76
2022/02/11 14:54:31;;;;;;;6.75;1.25;;;21.70;52.50;;;;;;5111769;28;20055;-76
2022/02/11 14:56:57;;;;;;;3.55;1.30;;;21.80;52.50;;;;;;5111868;28;20031;-76
2022/02/11 14:59:24;;;;;;;5.07;1.23;;;21.80;52.40;;;;;;5110757;28;20024;-75
2022/02/11 15:01:53;;;;;;;6.15;1.20;;;21.70;52.60;;;;;;5093622;28;20034;-75
2022/02/11 15:04:22;;;;;;;5.25;1.10;;;21.70;52.80;;;;;;5112182;28;20492;-75
2022/02/11 15:06:50;;;;;;;3.80;1.25;;;21.60;52.80;;;;;;5094068;28;20020;-74
2022/02/11 15:09:18;;;;;;;6.55;1.27;;;21.60;52.90;;;;;;5111995;28;20103;-74
2022/02/11 15:11:47;;;;;;;6.97;1.60;;;21.60;53.10;;;;;;5111551;28;20039;-74
2022/02/11 15:14:13;;;;;;;3.88;1.10;;;21.70;53.20;;;;;;5111929;28;20115;-74
2022/02/11 15:16:39;;;;;;;6.63;2.00;;;21.60;53.20;;;;;;5093106;28;20043;-74
2022/02/11 15:19:08;;;;;;;11.82;1.50;;;21.60;53.30;;;;;;5112846;28;20556;-74
2022/02/11 15:21:35;;;;;;;3.80;1.63;;;21.60;53.50;;;;;;5093831;28;20110;-75
2022/02/11 15:24:02;;;;;;;3.65;1.80;;;21.60;53.60;;;;;;5093599;28;20028;-75
2022/02/11 15:26:31;;;;;;;11.65;2.28;;;21.50;53.40;;;;;;5111525;28;20473;-74
2022/02/11 15:28:57;;;;;;;7.97;1.90;;;21.50;53.40;;;;;;5093575;28;20035;-75
2022/02/11 15:31:24;;;;;;;4.68;1.52;;;21.50;53.20;;;;;;5111188;28;20358;-74
2022/02/11 15:33:50;;;;;;;5.20;1.73;;;21.40;53.00;;;;;;5093577;28;20035;-74
2022/02/11 15:36:17;;;;;;;8.50;1.67;;;21.40;53.10;;;;;;5111882;28;20023;-75
2022/02/11 15:38:45;;;;;;;4.85;1.83;;;21.30;52.70;;;;;;5110993;28;20034;-75
2022/02/11 15:41:11;;;;;;;5.25;1.73;;;21.30;52.70;;;;;;5093050;28;20629;-75
2022/02/11 15:43:38;;;;;;;8.05;2.10;;;21.30;52.80;;;;;;5110759;28;20364;-76
2022/02/11 15:46:09;;;;;;;8.73;1.98;;;21.30;52.80;;;;;;5093824;28;20095;-74
2022/02/11 15:48:39;;;;;;;5.13;1.40;;;21.30;52.90;;;;;;5095445;28;20042;-75
2022/02/11 15:51:08;;;;;;;6.35;1.48;;;21.20;53.00;;;;;;5097502;28;20024;-75
2022/02/11 15:53:34;;;;;;;5.22;1.45;;;21.30;52.90;;;;;;5098491;28;20035;-75
2022/02/11 15:56:02;;;;;;;8.32;1.48;;;21.30;52.80;;;;;;5098109;28;20019;-75
2022/02/11 15:58:27;;;;;;;10.60;2.53;;;21.30;52.60;;;;;;5097202;28;20096;-75
2022/02/11 16:00:55;;;;;;;6.43;1.42;;;21.30;52.60;;;;;;5097360;28;20479;-74
2022/02/11 16:03:23;;;;;;;7.47;1.40;;;21.30;52.50;;;;;;5114968;28;20080;-75
2022/02/11 16:05:50;;;;;;;4.05;1.48;;;21.30;52.30;;;;;;5100804;28;20155;-75
2022/02/11 16:08:15;;;;;;;8.00;2.03;;;21.30;52.50;;;;;;5097187;28;20019;-76
2022/02/11 16:10:41;;;;;;;5.00;1.17;;;21.30;52.60;;;;;;5114684;28;20088;-74
2022/02/11 16:13:06;;;;;;;4.80;1.27;;;21.20;52.60;;;;;;5114759;28;20039;-75
2022/02/11 16:15:32;;;;;;;4.72;1.63;;;21.20;52.50;;;;;;5114875;28;20128;-74
2022/02/11 16:18:01;;;;;;;4.53;1.75;;;21.30;52.40;;;;;;5114607;28;20385;-76
2022/02/11 16:20:35;;;;;;;6.18;1.33;;;21.20;52.50;;;;;;5096243;28;20500;-76
2022/02/11 16:23:01;;;;;;;5.63;1.40;;;21.20;52.60;;;;;;5096136;28;20019;-75
2022/02/11 16:25:27;;;;;;;5.45;1.58;;;21.20;52.60;;;;;;5095941;28;20031;-75
2022/02/11 16:27:53;;;;;;;4.68;1.63;;;21.20;52.70;;;;;;5114595;28;20024;-75
2022/02/11 16:30:23;;;;;;;4.38;1.33;;;21.10;52.80;;;;;;5114764;28;20120;-76
2022/02/11 16:32:49;;;;;;;5.97;1.50;;;21.10;52.90;;;;;;5095694;28;20501;-76
2022/02/11 16:35:16;;;;;;;4.22;1.52;;;21.20;53.10;;;;;;5113488;28;20115;-76
2022/02/11 16:37:43;;;;;;;5.78;1.58;;;21.10;53.10;;;;;;5113534;28;20851;-75
2022/02/11 16:40:09;;;;;;;5.95;1.65;;;21.10;53.30;;;;;;5115154;28;20028;-78
2022/02/11 16:42:36;;;;;;;3.70;1.20;;;21.10;53.30;;;;;;5095664;28;20011;-76
2022/02/11 16:45:02;;;;;;;6.63;1.27;;;21.00;53.40;;;;;;5113442;28;20046;-76
2022/02/11 16:47:30;;;;;;;7.70;1.25;;;21.00;53.50;;;;;;5113007;28;20043;-77
2022/02/11 16:49:56;;;;;;;7.65;1.80;;;21.00;53.60;;;;;;5113521;28;20027;-77
2022/02/11 16:52:22;;;;;;;7.22;1.48;;;20.90;53.60;;;;;;5113390;28;20023;-72
2022/02/11 16:54:48;;;;;;;6.28;1.38;;;20.90;54.00;;;;;;5095261;28;20122;-73
2022/02/11 16:57:13;;;;;;;5.60;1.38;;;20.90;54.00;;;;;;5113666;28;20015;-73
2022/02/11 16:59:39;;;;;;;3.42;1.38;;;20.90;54.10;;;;;;5113665;28;20032;-76
2022/02/11 17:02:07;;;;;;;11.77;1.90;;;20.80;54.00;;;;;;5113854;28;20505;-77
2022/02/11 17:04:37;;;;;;;6.00;1.60;;;20.80;54.70;;;;;;5113501;28;20038;-76
2022/02/11 17:07:03;;;;;;;5.75;2.25;;;20.80;54.20;;;;;;5114322;28;20027;-74
2022/02/11 17:09:29;;;;;;;5.18;1.70;;;20.80;54.20;;;;;;5113805;28;20039;-75
2022/02/11 17:11:55;;;;;;;7.93;1.98;;;20.80;54.20;;;;;;5113957;28;20475;-73
2022/02/11 17:14:20;;;;;;;9.65;1.80;;;20.70;54.30;;;;;;5113771;28;20036;-77
2022/02/11 17:16:48;;;;;;;5.75;2.15;;;20.70;54.30;;;;;;5114058;28;20051;-75
2022/02/11 17:19:15;;;;;;;7.35;2.22;;;20.70;54.50;;;;;;5096461;28;20028;-74
2022/02/11 17:21:41;;;;;;;10.48;1.83;;;20.70;54.60;;;;;;5095593;28;20024;-75
2022/02/11 17:24:08;;;;;;;6.72;2.75;;;20.70;54.30;;;;;;5111628;28;20066;-75
2022/02/11 17:26:34;;;;;;;5.82;2.15;;;20.70;54.60;;;;;;5111291;28;20111;-74
2022/02/11 17:29:00;;;;;;;5.70;2.25;;;20.70;54.50;;;;;;5112641;28;20099;-75
2022/02/11 17:31:26;;;;;;;8.50;2.13;;;20.60;54.70;;;;;;5111447;28;20421;-74
2022/02/11 17:33:53;;;;;;;7.25;2.28;;;20.60;54.30;;;;;;5112261;28;20038;-74
2022/02/11 17:36:18;;;;;;;7.85;2.00;;;20.60;54.80;;;;;;5112316;28;20360;-74
2022/02/11 17:38:44;;;;;;;6.93;1.95;;;20.60;54.70;;;;;;5112658;28;20023;-75
2022/02/11 17:41:09;;;;;;;9.18;2.60;;;20.60;54.70;;;;;;5112344;28;20552;-74
2022/02/11 17:43:35;;;;;;;8.88;2.55;;;20.60;54.70;;;;;;5114211;27;20035;-73
2022/02/11 17:46:01;;;;;;;7.63;2.95;;;20.60;54.90;;;;;;5112025;28;20533;-76
2022/02/11 17:48:27;;;;;;;8.15;2.42;;;20.60;55.20;;;;;;5094301;28;20065;-75
2022/02/11 17:50:52;;;;;;;12.55;2.28;;;20.60;55.00;;;;;;5094233;27;20040;-75
2022/02/11 17:53:18;;;;;;;6.40;2.45;;;20.50;55.00;;;;;;5112863;28;20043;-75
2022/02/11 17:55:44;;;;;;;7.25;2.55;;;20.50;55.00;;;;;;5112221;28;20030;-75
2022/02/11 17:58:09;;;;;;;11.88;2.75;;;20.50;55.00;;;;;;5111208;28;20048;-75
2022/02/11 18:00:35;;;;;;;7.22;2.75;;;20.50;55.00;;;;;;5111907;28;20032;-76
2022/02/11 18:03:00;;;;;;;6.10;2.45;;;20.50;55.00;;;;;;5111970;28;20100;-75
2022/02/11 18:05:26;;;;;;;8.65;2.00;;;20.40;55.00;;;;;;5112315;28;20394;-76
2022/02/11 18:07:52;;;;;;;4.38;2.22;;;20.40;54.90;;;;;;5112183;28;20491;-74
2022/02/11 18:10:19;;;;;;;6.32;3.10;;;20.40;54.90;;;;;;5112727;28;20106;-76
2022/02/11 18:12:46;;;;;;;6.72;2.80;;;20.40;54.80;;;;;;5111554;28;20079;-74
2022/02/11 18:15:12;;;;;;;8.32;2.67;;;20.40;54.80;;;;;;5112259;28;20035;-75
2022/02/11 18:17:39;;;;;;;9.60;3.00;;;20.40;54.80;;;;;;5111596;28;20020;-74